Time;durP1;ratioP1;P1;durP2;ratioP2;P2;SDS_P1;SDS_P2;PMS_P1;PMS_P2;Temp;Humidity;BMP_temperature;BMP_pressure;BME280_temperature;BME280_humidity;BME280_pressure;Samples;Min_cycle;Max_cycle;Signal;HPM_P1;HPM_P2
2022/04/28 00:02:12;;;;;;;47.55;27.45;;;7.10;99.90;;;5.89;91.80;98130.00;5060820;28;20405;-76
2022/04/28 00:04:38;;;;;;;45.13;27.55;;;7.10;99.90;;;5.89;91.76;98135.28;5065818;28;20793;-76
2022/04/28 00:07:06;;;;;;;48.75;29.35;;;7.10;99.90;;;5.79;91.72;98136.44;5070665;28;20399;-76
2022/04/28 00:09:32;;;;;;;49.97;29.38;;;7.00;99.90;;;5.81;91.78;98134.44;5070407;28;20770;-76
2022/04/28 00:11:58;;;;;;;56.45;29.15;;;7.00;99.90;;;5.77;91.67;98142.94;5070168;28;20404;-76
2022/04/28 00:14:23;;;;;;;50.23;29.23;;;7.00;99.90;;;5.69;91.45;98143.94;5065854;28;20794;-76
2022/04/28 00:16:49;;;;;;;52.20;29.17;;;7.00;99.90;;;5.67;91.54;98139.88;5058825;28;20875;-76
2022/04/28 00:19:15;;;;;;;54.47;30.88;;;6.90;99.90;;;5.70;91.79;98140.31;5070401;28;20403;-76
2022/04/28 00:21:41;;;;;;;54.50;31.10;;;6.90;99.90;;;5.75;91.99;98137.88;5069941;28;20412;-76
2022/04/28 00:24:08;;;;;;;53.45;31.23;;;6.90;99.90;;;5.62;91.77;98137.06;5070362;28;20470;-76
2022/04/28 00:26:34;;;;;;;53.40;29.95;;;6.90;99.90;;;5.61;91.99;98135.44;5070339;28;20467;-76
2022/04/28 00:29:00;;;;;;;55.92;32.53;;;6.80;99.90;;;5.58;91.74;98134.00;5070194;28;20438;-76
2022/04/28 00:31:26;;;;;;;58.97;32.88;;;6.80;99.90;;;5.54;91.74;98135.44;5069926;28;20425;-76
2022/04/28 00:33:52;;;;;;;52.25;31.33;;;6.80;99.90;;;5.54;91.67;98138.06;5070180;28;20395;-76
2022/04/28 00:36:18;;;;;;;52.80;31.03;;;6.80;99.90;;;5.59;92.08;98140.06;5070243;28;20470;-76
2022/04/28 00:38:44;;;;;;;56.00;31.30;;;6.80;99.90;;;5.45;91.55;98140.06;5052145;28;20414;-76
2022/04/28 00:41:11;;;;;;;52.33;29.70;;;6.70;99.90;;;5.47;91.89;98146.94;5069779;28;20391;-76
2022/04/28 00:43:48;;;;;;;53.20;31.13;;;6.70;99.90;;;5.50;91.96;98134.19;5070102;28;20425;-76
2022/04/28 00:46:14;;;;;;;53.67;30.60;;;6.70;99.90;;;5.42;92.42;98137.81;5070099;28;20429;-76
2022/04/28 00:51:25;;;;;;;49.47;28.50;;;6.60;99.90;;;5.50;92.34;98139.47;5069747;28;20454;-76
2022/04/28 00:53:52;;;;;;;49.80;29.25;;;6.60;99.90;;;5.35;92.48;98137.00;5069882;28;20754;-76
2022/04/28 00:56:19;;;;;;;48.67;28.65;;;6.60;99.90;;;5.38;92.48;98135.81;5070079;28;20423;-76
2022/04/28 00:58:48;;;;;;;44.50;27.58;;;6.60;99.90;;;5.37;92.71;98140.25;5069927;28;20934;-76
2022/04/28 01:01:13;;;;;;;50.97;30.17;;;6.50;99.90;;;5.24;92.38;98134.16;5069507;28;20404;-76
2022/04/28 01:03:40;;;;;;;54.20;30.40;;;6.50;99.90;;;5.26;92.25;98132.16;5069924;28;20403;-76
2022/04/28 01:06:05;;;;;;;53.10;30.17;;;6.50;99.90;;;5.18;91.91;98132.34;5070005;28;20522;-76
2022/04/28 01:08:31;;;;;;;54.63;31.20;;;6.40;99.90;;;5.17;91.93;98139.41;5069811;28;20410;-76
2022/04/28 01:10:58;;;;;;;48.78;28.67;;;6.40;99.90;;;5.27;92.14;98133.75;5069402;28;20395;-76
2022/04/28 01:13:26;;;;;;;51.88;30.80;;;6.40;99.90;;;5.14;92.09;98129.28;5069607;28;20475;-76
2022/04/28 01:15:53;;;;;;;50.05;28.75;;;6.40;99.90;;;5.15;92.12;98130.09;5069607;28;20746;-76
2022/04/28 01:18:20;;;;;;;50.53;28.20;;;6.40;99.90;;;5.10;92.08;98128.09;5073030;28;20400;-76
2022/04/28 01:20:46;;;;;;;54.47;29.55;;;6.40;99.90;;;5.13;92.17;98135.53;5073089;28;20396;-76
2022/04/28 01:23:13;;;;;;;44.90;26.83;;;6.30;99.90;;;5.14;92.50;98134.53;5073304;28;20415;-76
2022/04/28 01:25:39;;;;;;;50.13;28.85;;;6.30;99.90;;;5.01;92.29;98135.31;5073307;28;20483;-76
2022/04/28 01:28:05;;;;;;;43.63;26.38;;;6.30;99.90;;;5.10;92.50;98135.16;5073263;28;20494;-76
2022/04/28 01:30:33;;;;;;;51.17;29.10;;;6.30;99.90;;;5.02;92.79;98136.94;5072818;28;20496;-75
2022/04/28 01:33:00;;;;;;;46.60;28.77;;;6.20;99.90;;;5.05;92.83;98138.34;5073267;28;20734;-76
2022/04/28 01:35:27;;;;;;;52.95;30.05;;;6.20;99.90;;;4.97;92.75;98136.69;5073052;28;20915;-76
2022/04/28 01:37:53;;;;;;;50.88;29.55;;;6.20;99.90;;;4.95;92.76;98143.16;5073188;28;20426;-76
2022/04/28 01:40:21;;;;;;;52.40;29.20;;;6.20;99.90;;;4.90;92.76;98133.25;5072860;28;20457;-76
2022/04/28 01:42:49;;;;;;;48.63;28.70;;;6.20;99.90;;;4.96;93.01;98142.16;5072187;28;21295;-76
2022/04/28 01:45:15;;;;;;;54.88;29.75;;;6.20;99.90;;;4.91;92.94;98141.94;5072839;28;20406;-76
2022/04/28 01:47:41;;;;;;;50.05;29.10;;;6.10;99.90;;;4.89;92.83;98144.75;5073006;28;20458;-76
2022/04/28 01:50:10;;;;;;;50.23;29.60;;;6.10;99.90;;;4.86;92.69;98139.09;5072737;28;20400;-76
2022/04/28 01:55:24;;;;;;;48.45;28.85;;;6.10;99.90;;;4.92;92.83;98135.69;5072777;28;20407;-76
2022/04/28 01:57:50;;;;;;;48.17;28.23;;;6.10;99.90;;;4.84;93.01;98141.91;5072902;28;20435;-76
2022/04/28 02:00:17;;;;;;;51.38;29.08;;;6.10;99.90;;;4.84;92.88;98138.47;5072456;28;20395;-76
2022/04/28 02:02:44;;;;;;;50.33;29.65;;;6.10;99.90;;;4.88;93.08;98140.53;5072695;28;20411;-76
2022/04/28 02:05:11;;;;;;;50.93;29.30;;;6.10;99.90;;;4.79;93.03;98133.03;5072585;28;20400;-76
2022/04/28 02:07:37;;;;;;;50.47;28.33;;;6.10;99.90;;;4.75;92.73;98137.00;5072587;28;20403;-76
2022/04/28 02:10:06;;;;;;;54.25;29.50;;;6.00;99.90;;;4.75;92.92;98143.06;5054594;28;20753;-76
2022/04/28 02:12:33;;;;;;;52.50;30.20;;;6.00;99.90;;;4.71;93.00;98138.44;5072316;28;20400;-76
2022/04/28 02:14:59;;;;;;;56.17;31.23;;;6.00;99.90;;;4.70;92.82;98139.44;5072453;28;20426;-76
2022/04/28 02:17:27;;;;;;;52.08;29.92;;;6.00;99.90;;;4.65;92.52;98140.03;5054517;28;20847;-76
2022/04/28 02:19:53;;;;;;;57.17;30.90;;;5.90;99.90;;;4.70;92.47;98139.44;5072210;28;20541;-76
2022/04/28 02:22:20;;;;;;;54.67;30.83;;;5.90;99.90;;;4.61;92.57;98136.16;5071999;28;20419;-76
2022/04/28 02:24:47;;;;;;;57.17;31.25;;;5.90;99.90;;;4.56;92.32;98133.31;5072108;28;20826;-76
2022/04/28 02:27:13;;;;;;;52.83;30.73;;;5.90;99.90;;;4.66;92.43;98136.41;5072170;28;20403;-76
2022/04/28 02:29:41;;;;;;;59.08;31.50;;;5.80;99.90;;;4.55;92.81;98144.81;5071072;28;20396;-76
2022/04/28 02:32:07;;;;;;;55.83;29.90;;;5.80;99.90;;;4.53;92.44;98147.63;5071844;28;20923;-76
2022/04/28 02:34:34;;;;;;;60.50;31.60;;;5.70;99.90;;;4.48;92.42;98143.97;5072145;28;20396;-76
2022/04/28 02:37:01;;;;;;;58.80;31.10;;;5.80;99.90;;;4.46;92.55;98140.72;5072003;28;20899;-76
2022/04/28 02:39:27;;;;;;;60.38;30.92;;;5.70;99.90;;;4.44;92.61;98145.34;5071918;28;20446;-76
2022/04/28 02:41:53;;;;;;;63.03;31.38;;;5.70;99.90;;;4.42;92.53;98150.78;5071569;28;20912;-76
2022/04/28 02:44:19;;;;;;;63.28;31.77;;;5.70;99.90;;;4.36;92.38;98151.53;5071895;28;20959;-76
2022/04/28 02:46:46;;;;;;;61.17;31.25;;;5.70;99.90;;;4.32;92.33;98152.94;5071986;28;20430;-76
2022/04/28 02:49:13;;;;;;;64.13;32.67;;;5.60;99.90;;;4.33;92.56;98149.31;5071927;28;20395;-76
2022/04/28 02:51:39;;;;;;;63.83;32.22;;;5.60;99.90;;;4.29;92.43;98159.38;5071577;28;20399;-76
2022/04/28 02:54:05;;;;;;;62.70;31.10;;;5.60;99.90;;;4.24;92.48;98159.13;5071572;28;20412;-76
2022/04/28 02:56:32;;;;;;;63.40;31.20;;;5.50;99.90;;;4.22;92.41;98153.28;5071646;28;20400;-76
2022/04/28 02:58:58;;;;;;;69.25;32.75;;;5.50;99.90;;;4.19;92.33;98151.06;5071484;28;20404;-76
2022/04/28 03:01:24;;;;;;;72.00;33.60;;;5.50;99.90;;;4.18;92.19;98153.84;5071133;28;20561;-76
2022/04/28 03:03:52;;;;;;;71.32;34.08;;;5.50;99.90;;;4.15;92.34;98154.22;5071406;28;20525;-76
2022/04/28 03:11:49;;;;;;;77.75;35.88;;;5.40;99.90;;;4.10;92.82;98157.44;5070971;28;20395;-76
2022/04/28 03:14:15;;;;;;;73.03;34.70;;;5.40;99.90;;;4.09;92.77;98155.81;5071249;28;20791;-76
2022/04/28 03:16:42;;;;;;;73.68;35.45;;;5.30;99.90;;;4.11;93.10;98159.06;5071164;28;20399;-76
2022/04/28 03:19:09;;;;;;;75.30;35.47;;;5.30;99.90;;;4.05;93.22;98162.44;5071165;28;20761;-76
2022/04/28 03:21:37;;;;;;;76.05;35.72;;;5.30;99.90;;;4.00;92.86;98161.38;5070517;28;20835;-76
2022/04/28 03:24:04;;;;;;;75.77;36.13;;;5.30;99.90;;;4.07;93.02;98170.09;5071124;28;20392;-76
2022/04/28 03:26:30;;;;;;;77.57;35.65;;;5.30;99.90;;;3.98;93.12;98166.00;5071171;28;20479;-76
2022/04/28 03:28:57;;;;;;;73.38;35.67;;;5.30;99.90;;;3.97;93.29;98167.00;5071016;28;20778;-76
2022/04/28 03:31:23;;;;;;;69.38;34.25;;;5.30;99.90;;;3.90;93.03;98164.34;5070627;28;20408;-76
2022/04/28 03:33:49;;;;;;;70.80;35.67;;;5.20;99.90;;;3.88;92.72;98163.72;5070915;28;20415;-76
2022/04/28 03:39:01;;;;;;;73.60;36.92;;;5.20;99.90;;;4.04;93.27;98165.25;5071017;28;20445;-76
2022/04/28 03:41:27;;;;;;;79.90;38.10;;;5.20;99.90;;;3.88;93.49;98161.09;5052323;28;20498;-75
2022/04/28 03:43:53;;;;;;;77.45;39.33;;;5.20;99.90;;;3.86;93.72;98169.13;5070693;28;20415;-77
2022/04/28 03:46:19;;;;;;;73.15;36.08;;;5.10;99.90;;;3.79;93.20;98170.88;5070868;28;20426;-74
2022/04/28 03:48:48;;;;;;;73.07;37.20;;;5.10;99.90;;;3.77;93.25;98177.31;5070636;28;20400;-76
2022/04/28 03:51:15;;;;;;;78.75;38.55;;;5.10;99.90;;;3.74;92.84;98173.28;5070197;28;20399;-75
2022/04/28 03:53:41;;;;;;;77.60;38.78;;;5.10;99.90;;;3.95;93.53;98177.66;5070625;28;20396;-76
2022/04/28 03:56:07;;;;;;;75.47;39.07;;;5.10;99.90;;;3.75;93.63;98171.47;5070511;28;20430;-75
2022/04/28 03:58:37;;;;;;;80.28;41.50;;;5.00;99.90;;;3.78;93.52;98176.31;5047616;28;20466;-76
2022/04/28 04:01:03;;;;;;;79.35;41.20;;;5.00;99.90;;;3.70;93.53;98173.81;5059067;28;20402;-76
2022/04/28 04:03:30;;;;;;;79.85;41.05;;;5.00;99.90;;;3.64;93.43;98169.34;5052095;28;20817;-76
2022/04/28 04:05:56;;;;;;;82.78;42.05;;;5.00;99.90;;;3.65;93.21;98173.56;5070304;28;20400;-74
2022/04/28 04:08:23;;;;;;;83.15;41.25;;;4.90;99.90;;;3.62;93.19;98169.50;5053301;28;20412;-76
2022/04/28 04:10:49;;;;;;;83.97;42.22;;;4.90;99.90;;;3.62;93.20;98168.69;5049195;28;20498;-75
2022/04/28 04:13:15;;;;;;;82.90;42.50;;;4.90;99.90;;;3.68;93.48;98178.44;5049520;28;20445;-75
2022/04/28 04:15:42;;;;;;;81.35;41.03;;;4.90;99.90;;;3.67;93.73;98172.41;5044821;28;20803;-75
2022/04/28 04:18:08;;;;;;;83.97;42.17;;;4.90;99.90;;;3.64;93.67;98174.56;5056297;28;20398;-76
2022/04/28 04:20:34;;;;;;;85.50;41.88;;;4.90;99.90;;;3.62;93.54;98182.59;5047098;28;20413;-75
2022/04/28 04:23:01;;;;;;;81.60;41.37;;;4.90;99.90;;;3.64;93.66;98182.44;5054342;28;20765;-73
2022/04/28 04:25:28;;;;;;;88.22;43.78;;;4.90;99.90;;;3.63;93.51;98183.41;5051986;28;20408;-75
2022/04/28 04:27:54;;;;;;;95.55;47.15;;;4.90;99.90;;;3.70;94.20;98192.94;5051153;28;20915;-75
2022/04/28 04:33:05;;;;;;;92.47;45.05;;;5.00;99.90;;;3.63;93.74;98196.50;5059432;28;20451;-76
2022/04/28 04:35:30;;;;;;;99.88;49.80;;;4.90;99.90;;;3.74;93.77;98196.03;5049348;28;20393;-76
2022/04/28 04:37:56;;;;;;;100.40;49.45;;;4.90;99.90;;;3.73;94.55;98197.00;5057936;28;20912;-76
2022/04/28 04:40:22;;;;;;;100.43;49.85;;;5.00;99.90;;;3.74;94.64;98201.25;5058886;28;20489;-75
2022/04/28 04:42:49;;;;;;;96.60;48.78;;;5.00;99.90;;;3.75;94.65;98206.31;5058073;28;20527;-76
2022/04/28 04:45:15;;;;;;;92.30;44.45;;;5.00;99.90;;;3.83;94.94;98208.00;5062467;28;20438;-76
2022/04/28 04:47:41;;;;;;;103.43;48.00;;;5.00;99.90;;;3.87;95.27;98210.03;5053483;28;20406;-75
2022/04/28 04:50:09;;;;;;;102.30;49.35;;;5.10;99.90;;;3.87;95.57;98209.22;5056778;28;20968;-76
2022/04/28 04:52:35;;;;;;;100.50;48.10;;;5.10;99.90;;;3.93;95.62;98218.13;5060351;28;20404;-76
2022/04/28 04:55:02;;;;;;;111.40;54.22;;;5.10;99.90;;;4.01;95.62;98224.06;5073500;22;20493;-75
2022/04/28 04:57:28;;;;;;;110.47;52.83;;;5.20;99.90;;;4.10;96.02;98219.50;5081377;28;20826;-76
2022/04/28 04:59:56;;;;;;;108.75;52.13;;;5.30;99.90;;;4.11;96.16;98229.78;5087563;28;20425;-77
2022/04/28 05:02:23;;;;;;;107.07;48.85;;;5.30;99.90;;;4.13;96.31;98225.19;5078145;28;20500;-77
2022/04/28 05:04:50;;;;;;;111.33;50.43;;;5.30;99.90;;;4.18;96.28;98232.47;5063234;28;20437;-77
2022/04/28 05:07:16;;;;;;;102.50;48.00;;;5.40;99.90;;;4.21;96.44;98234.72;5056719;28;20535;-77
2022/04/28 05:09:42;;;;;;;104.20;48.75;;;5.40;99.90;;;4.25;96.40;98242.00;5061003;28;20463;-77
2022/04/28 05:12:09;;;;;;;107.40;50.83;;;5.50;99.90;;;4.28;96.48;98241.59;5061428;28;20480;-77
2022/04/28 05:14:35;;;;;;;110.97;51.47;;;5.50;99.90;;;4.34;96.76;98234.00;5060640;28;20771;-77
2022/04/28 05:17:03;;;;;;;104.50;49.15;;;5.50;99.90;;;4.41;96.83;98234.84;5060583;28;20403;-76
2022/04/28 05:19:29;;;;;;;107.40;51.00;;;5.60;99.90;;;4.47;97.06;98240.13;5066629;28;20399;-77
2022/04/28 05:21:55;;;;;;;98.82;48.22;;;5.70;99.90;;;4.54;97.27;98245.44;5073163;28;21132;-76
2022/04/28 05:24:21;;;;;;;97.53;46.30;;;5.70;99.90;;;4.59;97.44;98245.66;5073299;28;20761;-77
2022/04/28 05:26:47;;;;;;;102.32;47.90;;;5.80;99.90;;;4.64;97.61;98253.78;5072339;28;20507;-77
2022/04/28 05:29:13;;;;;;;100.47;48.33;;;5.80;99.90;;;4.71;97.79;98257.25;5064943;28;20399;-77
2022/04/28 05:31:39;;;;;;;98.03;45.33;;;5.90;99.90;;;4.78;97.97;98258.09;5073016;28;20404;-77
2022/04/28 05:34:06;;;;;;;114.53;53.28;;;5.90;99.90;;;4.85;98.27;98258.94;5073297;28;20404;-77
2022/04/28 05:36:33;;;;;;;110.57;49.72;;;6.00;99.90;;;4.94;98.41;98268.28;5073190;28;20392;-77
2022/04/28 05:39:00;;;;;;;103.38;49.15;;;6.10;99.90;;;5.02;98.82;98262.06;5064226;28;20413;-76
2022/04/28 05:41:27;;;;;;;109.20;50.42;;;6.10;99.90;;;5.08;98.90;98269.16;5051095;28;20492;-77
2022/04/28 05:46:48;;;;;;;103.13;46.20;;;6.30;99.90;;;5.24;99.30;98260.16;5052562;28;20424;-77
2022/04/28 05:49:15;;;;;;;94.32;44.45;;;6.30;99.90;;;5.32;99.44;98267.88;5052438;28;20402;-77
2022/04/28 05:51:41;;;;;;;88.32;42.22;;;6.40;99.90;;;5.38;99.76;98272.31;5052266;28;20432;-77
2022/04/28 05:54:07;;;;;;;95.33;43.53;;;6.50;99.90;;;5.45;100.00;98271.34;5052268;28;20764;-76
2022/04/28 05:56:33;;;;;;;89.05;41.22;;;6.60;99.90;;;5.53;100.00;98280.06;5046955;28;20520;-77
2022/04/28 05:58:59;;;;;;;91.40;41.35;;;6.60;99.90;;;5.60;100.00;98278.25;5054368;28;21012;-77
2022/04/28 06:01:29;;;;;;;85.18;39.90;;;6.70;99.90;;;5.68;100.00;98280.72;5052896;28;20405;-78
2022/04/28 06:03:57;;;;;;;89.75;41.45;;;6.80;99.90;;;5.75;100.00;98284.97;5057750;28;20420;-77
2022/04/28 06:06:25;;;;;;;97.30;44.42;;;6.80;99.90;;;5.86;100.00;98288.03;5052423;28;20409;-76
2022/04/28 06:08:51;;;;;;;87.60;41.65;;;6.90;99.90;;;5.90;100.00;98278.78;5060144;28;20865;-76
2022/04/28 06:11:17;;;;;;;90.70;41.63;;;7.00;99.90;;;5.98;100.00;98289.91;5064574;28;20403;-77
2022/04/28 06:13:43;;;;;;;84.60;39.70;;;7.00;99.90;;;6.04;100.00;98288.31;5062136;28;20433;-76
2022/04/28 06:16:09;;;;;;;79.88;38.65;;;7.10;99.90;;;6.10;100.00;98280.41;5047095;28;20884;-76
2022/04/28 06:18:35;;;;;;;79.78;39.95;;;7.20;99.90;;;6.19;100.00;98287.09;5049068;28;20498;-76
2022/04/28 06:21:01;;;;;;;84.30;41.25;;;7.20;99.90;;;6.25;100.00;98289.94;5060890;28;20965;-75
2022/04/28 06:23:28;;;;;;;85.33;41.60;;;7.30;99.90;;;6.33;100.00;98295.81;5052298;28;20417;-75
2022/04/28 06:25:54;;;;;;;86.35;40.83;;;7.40;99.90;;;6.39;100.00;98295.00;5051289;28;20405;-74
2022/04/28 06:28:22;;;;;;;84.63;41.60;;;7.40;99.90;;;6.46;100.00;98298.47;5056050;28;21191;-74
2022/04/28 06:30:48;;;;;;;79.73;39.10;;;7.50;99.90;;;6.53;100.00;98298.47;5053684;28;20461;-74
2022/04/28 06:33:13;;;;;;;78.75;38.17;;;7.60;99.90;;;6.58;100.00;98302.09;5057853;28;21129;-76
2022/04/28 06:35:39;;;;;;;83.15;38.65;;;7.60;99.90;;;6.64;100.00;98302.28;5050496;28;20856;-74
2022/04/28 06:38:05;;;;;;;85.55;40.42;;;7.60;99.90;;;6.70;100.00;98314.63;5055400;28;20492;-74
2022/04/28 06:40:32;;;;;;;83.35;39.88;;;7.70;99.90;;;6.77;100.00;98307.53;5061524;28;20409;-75
2022/04/28 06:42:58;;;;;;;79.85;39.40;;;7.80;99.90;;;6.83;100.00;98306.75;5058368;28;20411;-76
2022/04/28 06:45:24;;;;;;;84.28;38.42;;;7.80;99.90;;;6.90;100.00;98304.91;5065444;28;20404;-74
2022/04/28 06:47:50;;;;;;;76.47;36.03;;;7.90;99.90;;;6.96;100.00;98312.78;5064534;28;20445;-76
2022/04/28 06:50:16;;;;;;;75.22;35.60;;;8.00;99.90;;;7.02;100.00;98313.78;5063047;28;20452;-76
2022/04/28 06:52:42;;;;;;;88.22;39.10;;;8.00;99.90;;;7.09;100.00;98314.59;5071200;28;20444;-75
2022/04/28 06:55:10;;;;;;;79.10;36.70;;;8.10;99.90;;;7.17;100.00;98308.28;5063068;28;20523;-75
2022/04/28 06:57:38;;;;;;;74.18;35.25;;;8.20;99.90;;;7.24;100.00;98322.25;5071913;28;20828;-78
2022/04/28 07:00:06;;;;;;;77.95;37.65;;;8.20;99.90;;;7.31;100.00;98323.03;5071698;28;20463;-77
2022/04/28 07:02:32;;;;;;;73.72;34.35;;;8.30;99.90;;;7.38;100.00;98323.81;5071706;28;20451;-79
2022/04/28 07:04:58;;;;;;;65.63;31.40;;;8.30;99.90;;;7.44;100.00;98323.03;5071775;28;20404;-80
2022/04/28 07:07:24;;;;;;;73.57;30.83;;;8.40;99.90;;;7.51;100.00;98329.06;5069136;28;20402;-81
2022/04/28 07:09:50;;;;;;;71.50;30.20;;;8.50;99.90;;;7.57;100.00;98324.78;5052180;28;20406;-82
2022/04/28 07:12:16;;;;;;;67.40;30.02;;;8.50;99.90;;;7.63;100.00;98324.75;5061959;28;20407;-83
2022/04/28 07:14:43;;;;;;;72.93;31.95;;;8.60;99.90;;;7.69;100.00;98317.84;5080766;28;20430;-83
2022/04/28 07:17:09;;;;;;;71.00;32.50;;;8.60;99.90;;;7.79;100.00;98320.84;5054434;28;20398;-76
2022/04/28 07:19:36;;;;;;;64.37;29.33;;;8.70;99.90;;;7.86;100.00;98324.25;5051975;28;20488;-78
2022/04/28 07:22:05;;;;;;;68.10;29.92;;;8.80;99.90;;;7.91;100.00;98327.06;5061128;28;20421;-77
2022/04/28 07:24:31;;;;;;;67.10;28.60;;;8.90;99.90;;;7.99;100.00;98326.00;5052191;28;20391;-77
2022/04/28 07:26:57;;;;;;;62.40;26.83;;;8.90;99.90;;;8.09;100.00;98327.16;5051289;28;20414;-77
2022/04/28 07:29:23;;;;;;;58.73;24.83;;;9.00;99.90;;;8.15;100.00;98330.78;5071382;28;20770;-77
2022/04/28 07:31:50;;;;;;;48.47;23.10;;;9.10;99.90;;;8.21;100.00;98327.28;5060818;28;20441;-78
2022/04/28 07:34:16;;;;;;;44.90;21.57;;;9.20;99.90;;;8.30;100.00;98328.66;5051819;28;20417;-77
2022/04/28 07:36:42;;;;;;;48.33;21.80;;;9.20;99.90;;;8.40;100.00;98336.13;5056918;28;20591;-75
2022/04/28 07:39:07;;;;;;;46.28;22.50;;;9.30;99.90;;;8.53;100.00;98333.41;5051680;28;20452;-75
2022/04/28 07:41:33;;;;;;;49.37;22.33;;;9.40;99.90;;;8.63;100.00;98335.56;5059842;28;20785;-76
2022/04/28 07:43:59;;;;;;;45.13;22.42;;;9.50;99.90;;;8.75;100.00;98336.47;5055313;28;20475;-75
2022/04/28 07:46:25;;;;;;;39.80;18.77;;;9.60;99.90;;;8.87;100.00;98342.69;5059030;28;20478;-77
2022/04/28 07:48:52;;;;;;;41.63;20.33;;;9.70;99.90;;;8.94;100.00;98340.78;5050212;28;20408;-77
2022/04/28 07:51:19;;;;;;;34.13;18.13;;;9.80;99.90;;;9.04;100.00;98346.38;5070543;28;20408;-79
2022/04/28 07:53:44;;;;;;;29.77;16.35;;;9.90;99.90;;;9.10;100.00;98350.78;5070936;28;20904;-77
2022/04/28 07:56:10;;;;;;;27.98;15.48;;;10.00;99.90;;;9.21;100.00;98342.16;5070881;28;20399;-75
2022/04/28 07:58:37;;;;;;;24.25;14.35;;;10.10;99.90;;;9.31;100.00;98347.75;5063067;28;20899;-76
2022/04/28 08:01:03;;;;;;;23.73;14.48;;;10.10;99.90;;;9.41;100.00;98349.03;5061040;28;20485;-77
2022/04/28 08:03:29;;;;;;;21.87;13.90;;;10.20;99.90;;;9.53;100.00;98345.47;5070991;28;20570;-82
2022/04/28 08:05:58;;;;;;;22.90;14.00;;;10.40;99.90;;;9.64;100.00;98355.28;5072760;28;20427;-84
2022/04/28 08:08:24;;;;;;;21.02;13.70;;;10.50;99.90;;;9.80;100.00;98358.38;5071113;28;20937;-80
2022/04/28 08:10:50;;;;;;;20.27;14.02;;;10.60;99.90;;;9.85;100.00;98359.31;5070804;28;21051;-76
2022/04/28 08:13:16;;;;;;;21.45;14.20;;;10.70;99.90;;;10.05;100.00;98359.88;5070727;28;20444;-79
2022/04/28 08:15:45;;;;;;;22.23;14.48;;;10.80;99.90;;;10.06;100.00;98363.34;5070780;28;20454;-74
2022/04/28 08:18:11;;;;;;;18.98;13.13;;;10.80;99.90;;;10.10;100.00;98356.56;5069461;28;20403;-76
2022/04/28 08:20:40;;;;;;;18.30;12.20;;;10.90;99.90;;;10.23;100.00;98369.63;5070212;28;20408;-76
2022/04/28 08:23:08;;;;;;;16.40;11.15;;;11.00;99.90;;;10.30;100.00;98362.41;5070465;28;20879;-76
2022/04/28 08:25:34;;;;;;;16.42;11.65;;;11.10;99.90;;;10.32;100.00;98365.66;5057147;28;20409;-78
2022/04/28 08:28:00;;;;;;;16.17;10.93;;;11.10;99.90;;;10.37;100.00;98367.63;5049120;28;20397;-78
2022/04/28 08:30:26;;;;;;;16.63;11.90;;;11.20;99.90;;;10.51;100.00;98363.75;5056137;28;20425;-77
2022/04/28 08:32:52;;;;;;;17.92;12.40;;;11.30;99.90;;;10.56;100.00;98361.22;5050478;28;20401;-75
2022/04/28 08:35:18;;;;;;;17.70;11.53;;;11.40;99.90;;;10.62;100.00;98362.16;5054429;28;20410;-76
2022/04/28 08:37:44;;;;;;;14.98;10.85;;;11.40;99.90;;;10.57;100.00;98364.69;5061711;28;20808;-75
2022/04/28 08:40:12;;;;;;;14.85;10.98;;;11.30;99.90;;;10.73;100.00;98369.34;5069573;28;20408;-77
2022/04/28 08:42:40;;;;;;;19.30;13.30;;;11.50;99.90;;;10.78;100.00;98354.38;5043754;28;20411;-77
2022/04/28 08:45:07;;;;;;;18.08;11.35;;;11.60;99.90;;;10.75;100.00;98369.91;5051810;28;20409;-77
2022/04/28 08:47:33;;;;;;;13.85;10.60;;;11.60;99.90;;;10.94;100.00;98358.19;5037585;28;20405;-78
2022/04/28 08:49:59;;;;;;;17.15;10.43;;;11.70;99.90;;;10.98;100.00;98356.69;5058537;28;20847;-77
2022/04/28 08:52:25;;;;;;;13.00;10.15;;;11.70;99.90;;;11.10;100.00;98364.66;5069942;28;20407;-80
2022/04/28 08:54:54;;;;;;;15.55;10.60;;;11.80;99.90;;;11.14;100.00;98361.31;5063836;28;20888;-77
2022/04/28 08:57:22;;;;;;;13.07;9.55;;;11.90;99.90;;;11.21;100.00;98361.19;5063124;28;20438;-78
2022/04/28 08:59:51;;;;;;;11.52;9.02;;;12.00;99.90;;;11.29;100.00;98363.47;5060761;28;20504;-79
2022/04/28 09:02:23;;;;;;;13.65;10.27;;;12.10;99.90;;;11.10;100.00;98352.22;5059086;28;20455;-76
2022/04/28 09:04:49;;;;;;;12.20;9.15;;;12.00;99.90;;;11.25;100.00;98357.84;5068601;28;20403;-77
2022/04/28 09:07:15;;;;;;;12.60;9.02;;;12.00;99.90;;;11.44;100.00;98363.00;5070102;28;20762;-76
2022/04/28 09:09:42;;;;;;;13.40;9.13;;;12.20;99.90;;;11.51;100.00;98367.16;5069775;28;20484;-74
2022/04/28 09:12:08;;;;;;;10.25;8.10;;;12.30;99.90;;;11.67;100.00;98367.47;5069812;28;20457;-79
2022/04/28 09:14:43;;;;;;;10.25;8.45;;;12.40;99.90;;;11.73;100.00;98371.88;5070167;28;20435;-77
2022/04/28 09:17:08;;;;;;;10.63;7.53;;;12.40;99.90;;;11.82;100.00;98376.59;5069856;28;20501;-78
2022/04/28 09:19:38;;;;;;;11.40;8.73;;;12.60;99.90;;;11.90;100.00;98362.94;5069648;28;20514;-77
2022/04/28 09:22:08;;;;;;;10.27;7.78;;;12.60;99.90;;;11.99;100.00;98376.66;5051447;28;20482;-77
2022/04/28 09:24:35;;;;;;;11.38;8.57;;;12.70;99.90;;;11.94;100.00;98366.75;5069718;28;20785;-76
2022/04/28 09:27:01;;;;;;;12.85;8.13;;;12.80;99.90;;;11.93;100.00;98367.81;5069786;28;20753;-75
2022/04/28 09:29:30;;;;;;;11.27;8.23;;;12.70;99.90;;;11.87;100.00;98363.44;5069829;28;20395;-76
2022/04/28 09:31:57;;;;;;;13.23;7.47;;;12.70;99.90;;;11.99;100.00;98358.09;5069188;28;20982;-78
2022/04/28 09:34:24;;;;;;;10.27;7.68;;;12.70;99.90;;;12.11;100.00;98358.03;5069488;28;20399;-77
2022/04/28 09:36:50;;;;;;;9.07;7.47;;;12.80;99.90;;;12.07;100.00;98357.72;5069675;28;20404;-76
2022/04/28 09:44:53;;;;;;;8.98;5.28;;;13.20;99.90;;;12.83;95.51;98350.28;5073345;28;20461;-77
2022/04/28 09:47:22;;;;;;;7.25;4.88;;;13.50;99.90;;;12.97;95.57;98360.34;5073318;28;20724;-78
2022/04/28 09:49:52;;;;;;;6.82;4.80;;;13.60;99.90;;;13.11;92.14;98361.63;5073138;28;20403;-76
2022/04/28 09:52:19;;;;;;;7.28;4.65;;;13.70;99.90;;;13.02;84.25;98351.63;5072953;28;20400;-76
2022/04/28 09:54:47;;;;;;;5.18;4.35;;;13.70;99.90;;;13.21;88.43;98355.69;5073254;28;20472;-78
2022/04/28 09:57:14;;;;;;;6.28;4.75;;;13.80;99.90;;;13.47;83.95;98354.97;5073246;28;20474;-79
2022/04/28 09:59:42;;;;;;;6.47;4.57;;;14.00;99.90;;;13.74;89.72;98357.72;5073280;28;20414;-79
2022/04/28 10:02:15;;;;;;;5.57;4.75;;;14.30;99.90;;;13.76;86.06;98360.13;5072691;28;20431;-75
2022/04/28 10:04:43;;;;;;;6.00;4.50;;;14.40;99.90;;;13.91;88.48;98353.13;5073056;28;20391;-75
2022/04/28 10:07:10;;;;;;;4.97;4.20;;;14.50;99.90;;;14.14;82.79;98370.69;5073042;28;20493;-75
2022/04/28 10:09:36;;;;;;;5.28;4.30;;;14.70;99.90;;;14.45;81.28;98365.72;5073058;28;20392;-76
2022/04/28 10:12:05;;;;;;;6.78;4.95;;;15.10;99.90;;;15.01;88.92;98361.69;5073558;28;20404;-77
2022/04/28 10:14:33;;;;;;;7.40;4.95;;;15.60;99.90;;;15.94;94.93;98362.75;5072593;28;20765;-77
2022/04/28 10:17:01;;;;;;;5.70;3.90;;;16.60;99.90;;;17.06;95.47;98361.13;5069265;28;20416;-78
2022/04/28 10:19:32;;;;;;;5.28;3.65;;;17.60;99.90;;;17.54;86.37;98359.69;5059337;28;20393;-78
2022/04/28 10:22:04;;;;;;;6.13;3.80;;;18.30;99.90;;;18.21;82.00;98358.38;5053666;28;20402;-78
2022/04/28 10:32:58;;;;;;;3.67;2.88;;;21.80;94.30;;;21.96;75.88;98346.38;5049046;28;20477;-77
2022/04/28 10:35:40;;;;;;;3.92;2.30;;;22.50;99.90;;;22.85;54.29;98334.97;5051852;28;20887;-77
2022/04/28 10:38:15;;;;;;;2.45;1.90;;;23.40;74.60;;;23.79;55.17;98339.25;5047991;28;20999;-76
2022/04/28 10:40:44;;;;;;;2.67;1.98;;;24.20;78.00;;;24.51;44.79;98339.53;5051313;28;20472;-76
2022/04/28 10:43:21;;;;;;;2.63;2.00;;;25.10;60.90;;;25.26;44.17;98340.91;5048342;28;20480;-75
2022/04/28 10:45:49;;;;;;;2.58;1.98;;;25.60;59.10;;;25.86;40.34;98342.63;5051500;28;20390;-76
2022/04/28 10:48:28;;;;;;;4.10;2.72;;;26.30;54.90;;;25.85;38.32;98329.38;5051796;28;20488;-76